Time,TemperatureF,DewpointF,PressureIn,WindDirection,WindDirectionDegrees,WindSpeedMPH,WindSpeedGustMPH,Humidity,HourlyPrecipIn,Conditions,Clouds,dailyrainin,SolarRadiationWatts/m^2,SoftwareType,DateUTC
2013-07-24 00:24:00,51.0,39.0,-100.00,ENE,61,4.0,6.0,63,0.00,,,0.03,0.000000,,2013-07-24 06:24:00,
2013-07-24 00:34:00,51.0,39.0,-100.00,ENE,61,4.0,6.0,63,0.00,,,0.03,0.000000,,2013-07-24 06:34:00,
2013-07-24 00:43:00,51.0,39.0,-100.00,ENE,61,4.0,6.0,63,0.00,,,0.03,0.000000,,2013-07-24 06:43:00,
2013-07-24 00:53:00,51.0,39.0,-100.00,ENE,61,4.0,6.0,63,0.00,,,0.03,0.000000,,2013-07-24 06:53:00,
2013-07-24 01:22:00,52.0,39.0,-100.00,North,7,6.0,10.0,61,0.00,,,0.03,0.000000,,2013-07-24 07:22:00,
2013-07-24 01:32:00,52.0,39.0,-100.00,North,7,6.0,10.0,61,0.00,,,0.03,0.000000,,2013-07-24 07:32:00,
2013-07-24 01:43:00,52.0,39.0,-100.00,North,7,6.0,10.0,61,0.00,,,0.03,0.000000,,2013-07-24 07:43:00,
2013-07-24 01:52:00,52.0,39.0,-100.00,North,7,6.0,10.0,61,0.00,,,0.03,0.000000,,2013-07-24 07:52:00,
2013-07-24 02:22:00,48.0,38.0,-100.00,ENE,61,4.0,7.0,68,0.00,,,0.03,0.000000,,2013-07-24 08:22:00,
2013-07-24 02:32:00,48.0,38.0,-100.00,ENE,61,4.0,7.0,68,0.00,,,0.03,0.000000,,2013-07-24 08:32:00,
2013-07-24 02:42:00,48.0,38.0,-100.00,ENE,61,4.0,7.0,68,0.00,,,0.03,0.000000,,2013-07-24 08:42:00,
2013-07-24 02:52:00,48.0,38.0,-100.00,ENE,61,4.0,7.0,68,0.00,,,0.03,0.000000,,2013-07-24 08:52:00,
2013-07-24 04:33:00,45.0,38.0,-100.00,NE,46,7.0,8.0,77,-99.99,,,0.03,0.000000,,2013-07-24 10:33:00,
2013-07-24 04:43:00,45.0,38.0,-100.00,NE,46,7.0,8.0,77,-99.99,,,0.03,0.000000,,2013-07-24 10:43:00,
2013-07-24 04:53:00,45.0,38.0,-100.00,NE,46,7.0,8.0,77,-99.99,,,0.03,0.000000,,2013-07-24 10:53:00,
2013-07-24 05:22:00,46.0,39.0,-100.00,NNE,28,2.0,7.0,76,-99.99,,,0.03,0.000000,,2013-07-24 11:22:00,
2013-07-24 05:32:00,46.0,39.0,-100.00,NNE,28,2.0,7.0,76,-99.99,,,0.03,0.000000,,2013-07-24 11:32:00,
2013-07-24 05:43:00,46.0,39.0,-100.00,NNE,28,2.0,7.0,76,-99.99,,,0.03,0.000000,,2013-07-24 11:43:00,
2013-07-24 05:52:00,46.0,39.0,-100.00,NNE,28,2.0,7.0,76,-99.99,,,0.03,0.000000,,2013-07-24 11:52:00,
2013-07-24 06:22:00,48.0,38.0,-100.00,NE,51,4.0,9.0,68,0.00,,,0.03,0.000000,,2013-07-24 12:22:00,
2013-07-24 06:32:00,48.0,38.0,-100.00,NE,51,4.0,9.0,68,0.00,,,0.03,0.000000,,2013-07-24 12:32:00,
2013-07-24 06:42:00,48.0,38.0,-100.00,NE,51,4.0,9.0,68,0.00,,,0.03,0.000000,,2013-07-24 12:42:00,
2013-07-24 06:52:00,48.0,38.0,-100.00,NE,51,4.0,9.0,68,0.00,,,0.03,0.000000,,2013-07-24 12:52:00,
2013-07-24 07:32:00,50.0,38.0,-100.00,NW,315,5.0,6.0,62,0.00,,,0.03,10.000000,,2013-07-24 13:32:00,
2013-07-24 07:43:00,50.0,38.0,-100.00,NW,315,5.0,6.0,62,0.00,,,0.03,10.000000,,2013-07-24 13:43:00,
2013-07-24 07:53:00,50.0,38.0,-100.00,NW,315,5.0,6.0,62,0.00,,,0.03,10.000000,,2013-07-24 13:53:00,
2013-07-24 08:22:00,54.0,40.0,-100.00,NW,326,5.0,8.0,59,0.00,,,0.03,127.000000,,2013-07-24 14:22:00,
2013-07-24 08:32:00,54.0,40.0,-100.00,NW,326,5.0,8.0,59,0.00,,,0.03,127.000000,,2013-07-24 14:32:00,
2013-07-24 08:43:00,54.0,40.0,-100.00,NW,326,5.0,8.0,59,0.00,,,0.03,127.000000,,2013-07-24 14:43:00,
2013-07-24 08:55:00,54.0,40.0,-100.00,NW,326,5.0,8.0,59,0.00,,,0.03,127.000000,,2013-07-24 14:55:00,
2013-07-24 09:22:00,58.0,41.0,-100.00,WNW,283,4.0,7.0,54,0.00,,,0.03,340.000000,,2013-07-24 15:22:00,
2013-07-24 09:32:00,58.0,41.0,-100.00,WNW,283,4.0,7.0,54,0.00,,,0.03,340.000000,,2013-07-24 15:32:00,
2013-07-24 09:43:00,58.0,41.0,-100.00,WNW,283,4.0,7.0,54,0.00,,,0.03,340.000000,,2013-07-24 15:43:00,
2013-07-24 09:52:00,58.0,41.0,-100.00,WNW,283,4.0,7.0,54,0.00,,,0.03,340.000000,,2013-07-24 15:52:00,
2013-07-24 10:22:00,55.0,40.0,-100.00,West,275,5.0,7.0,56,0.00,,,0.03,324.000000,,2013-07-24 16:22:00,
2013-07-24 10:32:00,55.0,40.0,-100.00,West,275,5.0,7.0,56,0.00,,,0.03,324.000000,,2013-07-24 16:32:00,
2013-07-24 10:43:00,55.0,40.0,-100.00,West,275,5.0,7.0,56,0.00,,,0.03,324.000000,,2013-07-24 16:43:00,
2013-07-24 10:53:00,55.0,40.0,-100.00,West,275,5.0,7.0,56,0.00,,,0.03,324.000000,,2013-07-24 16:53:00,
2013-07-24 11:22:00,51.0,43.0,-100.00,NW,314,7.0,11.0,73,0.03,,,0.06,90.000000,,2013-07-24 17:22:00,
2013-07-24 12:22:00,54.0,43.0,-100.00,NE,35,8.0,17.0,66,-99.99,,,0.06,214.000000,,2013-07-24 18:22:00,
2013-07-24 12:33:00,54.0,43.0,-100.00,NE,35,8.0,17.0,66,-99.99,,,0.06,214.000000,,2013-07-24 18:33:00,
2013-07-24 12:43:00,54.0,43.0,-100.00,NE,35,8.0,17.0,66,-99.99,,,0.06,214.000000,,2013-07-24 18:43:00,
2013-07-24 12:52:00,54.0,43.0,-100.00,NE,35,8.0,17.0,66,-99.99,,,0.06,214.000000,,2013-07-24 18:52:00,
2013-07-24 13:53:00,60.0,40.0,-100.00,NE,38,9.0,19.0,48,0.00,,,0.06,542.000000,,2013-07-24 19:53:00,
2013-07-24 14:32:00,65.0,43.0,-100.00,SSE,156,7.0,19.0,45,0.00,,,0.06,716.000000,,2013-07-24 20:32:00,
2013-07-24 14:43:00,65.0,43.0,-100.00,SSE,156,7.0,19.0,45,0.00,,,0.06,716.000000,,2013-07-24 20:43:00,
2013-07-24 14:52:00,65.0,43.0,-100.00,SSE,156,7.0,19.0,45,0.00,,,0.06,716.000000,,2013-07-24 20:52:00,
2013-07-24 15:22:00,62.0,38.0,-100.00,SE,125,12.0,20.0,41,0.00,,,0.03,858.000000,,2013-07-24 21:22:00,
2013-07-24 15:32:00,62.0,38.0,-100.00,SE,125,12.0,20.0,41,0.00,,,0.03,858.000000,,2013-07-24 21:32:00,
2013-07-24 15:43:00,62.0,38.0,-100.00,SE,125,12.0,20.0,41,0.00,,,0.03,858.000000,,2013-07-24 21:43:00,
2013-07-24 15:52:00,62.0,38.0,-100.00,SE,125,12.0,20.0,41,0.00,,,0.03,858.000000,,2013-07-24 21:52:00,
2013-07-24 16:22:00,65.0,38.0,-100.00,WNW,296,5.0,13.0,37,0.00,,,0.03,505.000000,,2013-07-24 22:22:00,
2013-07-24 16:32:00,65.0,38.0,-100.00,WNW,296,5.0,13.0,37,0.00,,,0.03,505.000000,,2013-07-24 22:32:00,
2013-07-24 16:43:00,65.0,38.0,-100.00,WNW,296,5.0,13.0,37,0.00,,,0.03,505.000000,,2013-07-24 22:43:00,
2013-07-24 16:53:00,65.0,38.0,-100.00,WNW,296,5.0,13.0,37,0.00,,,0.03,505.000000,,2013-07-24 22:53:00,
2013-07-24 17:22:00,62.0,34.0,-100.00,SW,228,11.0,21.0,35,0.00,,,0.03,213.000000,,2013-07-24 23:22:00,
2013-07-24 17:32:00,62.0,34.0,-100.00,SW,228,11.0,21.0,35,0.00,,,0.03,213.000000,,2013-07-24 23:32:00,
2013-07-24 17:43:00,62.0,34.0,-100.00,SW,228,11.0,21.0,35,0.00,,,0.03,213.000000,,2013-07-24 23:43:00,
2013-07-24 17:52:00,62.0,34.0,-100.00,SW,228,11.0,21.0,35,0.00,,,0.03,213.000000,,2013-07-24 23:52:00,
2013-07-24 18:22:00,64.0,33.0,-100.00,SW,234,5.0,18.0,31,0.00,,,0.03,188.000000,,2013-07-25 00:22:00,
2013-07-24 18:33:00,64.0,33.0,-100.00,SW,234,5.0,18.0,31,0.00,,,0.03,188.000000,,2013-07-25 00:33:00,
2013-07-24 18:43:00,64.0,33.0,-100.00,SW,234,5.0,18.0,31,0.00,,,0.03,188.000000,,2013-07-25 00:43:00,
2013-07-24 18:52:00,64.0,33.0,-100.00,SW,234,5.0,18.0,31,0.00,,,0.03,188.000000,,2013-07-25 00:52:00,
2013-07-24 19:22:00,62.0,37.0,-100.00,North,356,4.0,8.0,39,0.00,,,0.03,136.000000,,2013-07-25 01:22:00,
2013-07-24 19:32:00,62.0,37.0,-100.00,North,356,4.0,8.0,39,0.00,,,0.03,136.000000,,2013-07-25 01:32:00,
2013-07-24 19:43:00,62.0,37.0,-100.00,North,356,4.0,8.0,39,0.00,,,0.03,136.000000,,2013-07-25 01:43:00,
2013-07-24 19:53:00,62.0,37.0,-100.00,North,356,4.0,8.0,39,0.00,,,0.03,136.000000,,2013-07-25 01:53:00,
2013-07-24 20:22:00,57.0,41.0,-100.00,ENE,63,4.0,7.0,54,0.00,,,0.03,103.000000,,2013-07-25 02:22:00,
2013-07-24 20:33:00,57.0,41.0,-100.00,ENE,63,4.0,7.0,54,0.00,,,0.03,103.000000,,2013-07-25 02:33:00,
2013-07-24 20:43:00,57.0,41.0,-100.00,ENE,63,4.0,7.0,54,0.00,,,0.03,103.000000,,2013-07-25 02:43:00,
2013-07-24 20:52:00,57.0,41.0,-100.00,ENE,63,4.0,7.0,54,0.00,,,0.03,103.000000,,2013-07-25 02:52:00,
2013-07-24 21:24:00,59.0,39.0,-100.00,SSE,164,6.0,15.0,48,0.00,,,0.03,1.000000,,2013-07-25 03:24:00,
2013-07-24 21:36:00,59.0,39.0,-100.00,SSE,164,6.0,15.0,48,0.00,,,0.03,1.000000,,2013-07-25 03:36:00,
2013-07-24 21:44:00,59.0,39.0,-100.00,SSE,164,6.0,15.0,48,0.00,,,0.03,1.000000,,2013-07-25 03:44:00,
2013-07-24 21:52:00,59.0,39.0,-100.00,SSE,164,6.0,15.0,48,0.00,,,0.03,1.000000,,2013-07-25 03:52:00,
2013-07-24 22:53:00,48.0,43.0,-100.00,North,354,17.0,25.0,83,0.42,,,0.45,0.000000,,2013-07-25 04:53:00,
2013-07-24 23:32:00,47.0,43.0,-100.00,NE,35,4.0,24.0,87,0.09,,,0.54,0.000000,,2013-07-25 05:32:00,
2013-07-24 23:43:00,47.0,43.0,-100.00,NE,35,4.0,24.0,87,0.09,,,0.54,0.000000,,2013-07-25 05:43:00,
2013-07-24 23:52:00,47.0,43.0,-100.00,NE,35,4.0,24.0,87,0.09,,,0.54,0.000000,,2013-07-25 05:52:00,